Time;durP1;ratioP1;P1;durP2;ratioP2;P2;SDS_P1;SDS_P2;PMS_P1;PMS_P2;Temp;Humidity;BMP_temperature;BMP_pressure;BME280_temperature;BME280_humidity;BME280_pressure;Samples;Min_cycle;Max_cycle;Signal;HPM_P1;HPM_P2
2023/04/11 00:02:19;;;;;;;7.65;4.30;;;21.90;56.70;;;;;;4877190;29;20140;-70
2023/04/11 00:04:46;;;;;;;6.28;4.60;;;22.00;56.60;;;;;;4877436;29;20045;-70
2023/04/11 00:07:12;;;;;;;5.80;4.10;;;21.90;56.60;;;;;;4877548;29;20451;-70
2023/04/11 00:09:38;;;;;;;5.60;4.07;;;22.00;56.80;;;;;;4875975;29;20072;-69
2023/04/11 00:12:04;;;;;;;4.15;3.50;;;21.90;56.50;;;;;;4876081;29;20037;-70
2023/04/11 00:14:33;;;;;;;5.57;3.97;;;21.90;56.70;;;;;;4877587;29;20040;-70
2023/04/11 00:17:00;;;;;;;5.93;4.13;;;21.90;56.90;;;;;;4877217;29;20048;-70
2023/04/11 00:19:27;;;;;;;6.00;4.00;;;21.80;56.80;;;;;;4875643;29;20092;-70
2023/04/11 00:21:57;;;;;;;5.38;4.18;;;21.80;56.70;;;;;;4877227;29;20417;-70
2023/04/11 00:24:26;;;;;;;5.22;3.90;;;21.80;56.70;;;;;;4877237;29;20037;-70
2023/04/11 00:26:52;;;;;;;5.07;4.15;;;22.00;56.80;;;;;;4877476;29;20184;-70
2023/04/11 00:29:19;;;;;;;5.63;3.55;;;21.80;56.70;;;;;;4877065;29;20052;-70
2023/04/11 00:31:45;;;;;;;6.30;4.28;;;21.90;56.70;;;;;;4876093;29;20397;-70
2023/04/11 00:34:11;;;;;;;6.47;4.30;;;21.80;56.50;;;;;;4877322;29;20200;-70
2023/04/11 00:36:40;;;;;;;7.97;4.22;;;21.90;56.60;;;;;;4886521;29;20068;-70
2023/04/11 00:39:10;;;;;;;8.75;4.72;;;21.90;56.60;;;;;;4877608;29;20044;-70
2023/04/11 00:41:36;;;;;;;5.10;4.13;;;22.00;56.60;;;;;;4881071;29;20115;-70
2023/04/11 00:44:02;;;;;;;5.63;3.70;;;21.90;56.50;;;;;;4895444;29;20236;-70
2023/04/11 00:46:29;;;;;;;5.78;3.47;;;21.90;56.40;;;;;;4895171;29;20044;-70
2023/04/11 00:48:55;;;;;;;6.45;4.80;;;21.90;56.40;;;;;;4895204;29;20029;-70
2023/04/11 00:51:21;;;;;;;4.95;4.38;;;21.90;56.40;;;;;;4895077;29;20096;-70
2023/04/11 00:53:47;;;;;;;6.65;3.83;;;21.70;56.40;;;;;;4880599;29;20048;-70
2023/04/11 00:56:13;;;;;;;6.00;3.85;;;21.90;56.50;;;;;;4879541;29;20180;-70
2023/04/11 00:58:40;;;;;;;5.28;4.15;;;21.80;56.40;;;;;;4894761;29;20116;-70
2023/04/11 01:01:09;;;;;;;6.03;4.30;;;21.70;56.40;;;;;;4895271;29;20028;-70
2023/04/11 01:03:40;;;;;;;4.82;3.83;;;21.80;56.40;;;;;;4880416;29;20211;-70
2023/04/11 01:06:09;;;;;;;7.63;4.15;;;21.70;56.40;;;;;;4894714;29;20033;-70
2023/04/11 01:08:37;;;;;;;7.00;4.47;;;21.70;56.40;;;;;;4894512;29;20040;-70
2023/04/11 01:11:03;;;;;;;5.88;4.60;;;21.70;56.40;;;;;;4880429;29;20501;-71
2023/04/11 01:13:32;;;;;;;5.70;4.40;;;21.70;56.40;;;;;;4880470;29;20377;-70
2023/04/11 01:15:58;;;;;;;6.20;4.20;;;21.70;56.30;;;;;;4894840;29;20108;-70
2023/04/11 01:18:25;;;;;;;6.90;4.47;;;21.60;56.20;;;;;;4915107;29;20111;-70
2023/04/11 01:20:52;;;;;;;7.38;4.75;;;21.70;56.30;;;;;;4915313;29;20044;-70
2023/04/11 01:23:24;;;;;;;6.00;3.72;;;21.80;56.20;;;;;;4915336;29;20056;-70
2023/04/11 01:25:50;;;;;;;5.70;4.53;;;21.80;56.20;;;;;;4915322;29;20380;-70
2023/04/11 01:28:19;;;;;;;5.47;4.22;;;21.70;56.10;;;;;;4915128;29;20086;-71
2023/04/11 01:30:46;;;;;;;7.45;4.38;;;21.80;56.00;;;;;;4899550;29;20480;-70
2023/04/11 01:33:14;;;;;;;6.55;4.50;;;21.80;56.00;;;;;;4915020;29;20070;-70
2023/04/11 01:35:40;;;;;;;5.45;4.13;;;21.80;56.00;;;;;;4915045;29;20412;-70
2023/04/11 01:38:07;;;;;;;6.68;4.40;;;21.80;56.00;;;;;;4915178;29;20148;-70
2023/04/11 01:40:33;;;;;;;7.28;5.28;;;21.80;56.00;;;;;;4915064;29;20049;-70
2023/04/11 01:43:02;;;;;;;5.03;4.47;;;21.80;56.00;;;;;;4914425;29;20199;-71
2023/04/11 01:45:30;;;;;;;8.00;5.35;;;21.70;55.90;;;;;;4899128;29;20044;-70
2023/04/11 01:47:56;;;;;;;6.20;4.70;;;21.80;55.90;;;;;;4899053;29;20123;-70
2023/04/11 01:50:23;;;;;;;5.72;4.25;;;21.80;55.90;;;;;;4879954;29;20489;-70
2023/04/11 01:52:50;;;;;;;5.25;4.05;;;21.80;55.80;;;;;;4894231;29;20113;-70
2023/04/11 01:55:16;;;;;;;5.00;4.13;;;21.70;55.90;;;;;;4879772;29;20696;-70
2023/04/11 01:57:43;;;;;;;7.55;3.90;;;21.70;55.90;;;;;;4878241;29;20037;-70
2023/04/11 02:00:10;;;;;;;5.43;4.15;;;21.80;55.90;;;;;;4893849;29;20652;-70
2023/04/11 02:02:40;;;;;;;4.90;3.85;;;21.60;55.90;;;;;;4878331;29;20450;-70
2023/04/11 02:05:08;;;;;;;5.43;4.03;;;21.70;55.90;;;;;;4878474;29;20048;-70
2023/04/11 02:07:36;;;;;;;6.97;4.32;;;21.60;55.80;;;;;;4879026;29;20418;-70
2023/04/11 02:10:03;;;;;;;5.40;4.68;;;21.70;55.90;;;;;;4879359;29;20045;-70
2023/04/11 02:12:29;;;;;;;5.88;3.95;;;21.60;55.80;;;;;;4879258;29;20026;-70
2023/04/11 02:14:55;;;;;;;5.93;4.20;;;21.60;55.80;;;;;;4879338;29;20089;-70
2023/04/11 02:17:25;;;;;;;6.22;4.45;;;21.70;55.90;;;;;;4877878;29;20033;-70
2023/04/11 02:19:51;;;;;;;6.25;5.05;;;21.70;56.00;;;;;;4879288;29;20040;-70
2023/04/11 02:22:17;;;;;;;5.18;3.97;;;21.60;55.80;;;;;;4877707;29;20045;-70
2023/04/11 02:24:43;;;;;;;6.75;4.80;;;21.70;55.80;;;;;;4879131;29;20062;-70
2023/04/11 02:27:10;;;;;;;6.97;4.45;;;21.60;55.70;;;;;;4878844;29;20044;-70
2023/04/11 02:29:36;;;;;;;7.55;4.28;;;21.60;55.70;;;;;;4877819;29;20105;-70
2023/04/11 02:32:02;;;;;;;6.55;4.47;;;21.70;55.70;;;;;;4879738;29;20482;-70
2023/04/11 02:34:28;;;;;;;6.25;4.55;;;21.60;55.70;;;;;;4861298;29;20052;-70
2023/04/11 02:36:54;;;;;;;9.68;4.22;;;21.70;55.70;;;;;;4893185;29;20099;-70
2023/04/11 02:39:23;;;;;;;6.53;4.28;;;21.70;55.60;;;;;;4878874;29;20068;-70
2023/04/11 02:41:49;;;;;;;5.30;3.53;;;21.80;55.50;;;;;;4893106;29;20572;-70
2023/04/11 02:44:17;;;;;;;5.13;4.00;;;21.80;55.50;;;;;;4892887;29;20049;-70
2023/04/11 02:46:43;;;;;;;5.43;4.05;;;21.70;55.50;;;;;;4877500;29;20070;-69
2023/04/11 02:49:10;;;;;;;6.60;4.38;;;21.80;55.50;;;;;;4878930;29;20652;-70
2023/04/11 02:51:37;;;;;;;5.85;4.07;;;21.80;55.40;;;;;;4892860;29;20787;-70
2023/04/11 02:54:04;;;;;;;6.45;4.05;;;21.70;55.40;;;;;;4892812;29;20108;-70
2023/04/11 02:56:33;;;;;;;5.97;4.22;;;21.70;55.40;;;;;;4892590;29;20032;-70
2023/04/11 02:58:59;;;;;;;6.95;3.90;;;21.80;55.30;;;;;;4892929;29;20052;-70
2023/04/11 03:01:28;;;;;;;7.53;4.30;;;21.80;55.40;;;;;;4876852;29;20549;-70
2023/04/11 03:03:55;;;;;;;5.75;4.82;;;21.80;55.40;;;;;;4892694;29;20037;-70
2023/04/11 03:06:25;;;;;;;5.60;4.00;;;21.60;55.30;;;;;;4877137;29;20402;-70
2023/04/11 03:08:56;;;;;;;5.32;3.80;;;21.70;55.50;;;;;;4892723;29;20029;-70
2023/04/11 03:11:22;;;;;;;6.28;4.75;;;21.70;55.60;;;;;;4892531;29;20040;-70
2023/04/11 03:13:47;;;;;;;6.93;4.47;;;21.70;55.60;;;;;;4878549;29;20370;-70
2023/04/11 03:16:14;;;;;;;4.65;3.78;;;21.80;55.40;;;;;;4878178;29;20088;-70
2023/04/11 03:18:40;;;;;;;11.88;4.95;;;21.70;55.40;;;;;;4892521;29;20040;-70
2023/04/11 03:21:10;;;;;;;8.43;4.80;;;21.70;55.70;;;;;;4892345;29;20061;-70
2023/04/11 03:23:39;;;;;;;6.30;4.55;;;21.60;55.80;;;;;;4876751;29;20140;-70
2023/04/11 03:26:06;;;;;;;9.20;4.50;;;21.60;55.70;;;;;;4876781;29;20052;-70
2023/04/11 03:28:33;;;;;;;5.13;4.07;;;21.60;55.60;;;;;;4876648;29;20048;-70
2023/04/11 03:30:59;;;;;;;7.25;4.35;;;21.50;55.70;;;;;;4876978;29;20052;-70
2023/04/11 03:33:25;;;;;;;7.88;4.32;;;21.70;55.80;;;;;;4892348;29;20089;-70
2023/04/11 03:35:51;;;;;;;6.40;4.70;;;21.50;55.80;;;;;;4877387;29;20064;-70
2023/04/11 03:38:17;;;;;;;6.97;4.60;;;21.50;55.80;;;;;;4876174;29;20037;-70
2023/04/11 03:40:43;;;;;;;5.70;4.53;;;21.70;55.90;;;;;;4876656;29;20033;-70
2023/04/11 03:43:15;;;;;;;6.38;4.57;;;21.50;55.90;;;;;;4876740;29;20401;-70
2023/04/11 03:45:41;;;;;;;6.32;4.65;;;21.50;55.90;;;;;;4876529;29;20466;-70
2023/04/11 03:48:15;;;;;;;9.60;4.90;;;21.50;55.80;;;;;;4876342;29;20119;-70
2023/04/11 03:50:56;;;;;;;6.55;4.85;;;21.60;55.80;;;;;;4861241;29;20037;-70
2023/04/11 03:53:29;;;;;;;;;;;21.60;55.90;;;;;;4857018;29;20435;-70
2023/04/11 03:56:03;;;;;;;5.13;4.07;;;21.40;56.00;;;;;;4838162;29;19959;-70
2023/04/11 03:58:34;;;;;;;6.22;4.13;;;21.50;56.10;;;;;;4838056;29;20156;-71
2023/04/11 04:01:01;;;;;;;6.72;4.47;;;21.60;55.60;;;;;;4807859;29;20056;-71
2023/04/11 04:03:28;;;;;;;5.55;3.95;;;21.90;55.10;;;;;;4822831;29;20049;-70
2023/04/11 04:05:55;;;;;;;7.63;5.07;;;21.90;55.30;;;;;;4823019;29;20053;-71
2023/04/11 04:08:22;;;;;;;6.35;4.00;;;22.10;57.80;;;;;;4807731;29;20169;-71
2023/04/11 04:10:50;;;;;;;6.50;4.57;;;22.40;59.10;;;;;;4825429;29;20053;-72
2023/04/11 04:13:16;;;;;;;6.55;4.68;;;22.60;58.50;;;;;;4854108;29;20046;-70
2023/04/11 04:16:00;;;;;;;5.82;4.75;;;22.60;59.10;;;;;;4857310;29;20129;-71
2023/04/11 04:18:27;;;;;;;6.78;4.90;;;22.80;57.00;;;;;;4826931;29;20110;-70
2023/04/11 04:20:53;;;;;;;7.40;5.20;;;22.80;54.00;;;;;;4823523;29;20074;-70
2023/04/11 04:23:22;;;;;;;7.20;5.20;;;22.90;53.30;;;;;;4823314;29;20050;-72
2023/04/11 04:26:07;;;;;;;8.80;4.78;;;22.70;52.30;;;;;;4827711;29;20046;-71
2023/04/11 04:28:35;;;;;;;6.85;5.30;;;22.60;52.10;;;;;;4829830;29;20049;-72
2023/04/11 04:31:03;;;;;;;6.75;5.10;;;22.70;52.40;;;;;;4859985;29;20057;-71
2023/04/11 04:33:41;;;;;;;9.43;5.60;;;22.50;52.80;;;;;;4859933;29;20033;-72
2023/04/11 04:36:16;;;;;;;7.35;5.40;;;22.50;53.20;;;;;;4869979;29;20056;-72
2023/04/11 04:38:43;;;;;;;8.38;4.88;;;22.50;53.60;;;;;;4878561;29;20053;-73
2023/04/11 04:41:16;;;;;;;8.40;5.85;;;22.50;54.10;;;;;;4878765;29;20041;-71
2023/04/11 04:43:56;;;;;;;6.13;5.13;;;22.50;54.00;;;;;;4878477;29;20541;-71
2023/04/11 04:46:35;;;;;;;7.43;5.63;;;22.50;54.30;;;;;;4877340;29;20057;-74
2023/04/11 04:49:04;;;;;;;7.93;5.20;;;22.40;51.30;;;;;;4878359;29;20060;-74
2023/04/11 04:51:31;;;;;;;5.88;4.53;;;22.50;50.80;;;;;;4876091;29;20395;-73
2023/04/11 04:53:58;;;;;;;5.63;4.47;;;22.50;50.70;;;;;;4876449;29;20033;-73
2023/04/11 04:56:27;;;;;;;7.53;4.63;;;22.50;50.30;;;;;;4861186;29;20066;-74
2023/04/11 04:58:53;;;;;;;10.55;5.65;;;22.70;50.30;;;;;;4876461;29;20050;-71
2023/04/11 05:01:21;;;;;;;8.50;6.05;;;22.50;48.40;;;;;;4876169;29;20038;-70
2023/04/11 05:03:57;;;;;;;8.70;5.15;;;22.40;48.70;;;;;;4860273;29;20041;-72
2023/04/11 05:06:31;;;;;;;6.55;5.22;;;22.50;49.00;;;;;;4876217;29;20041;-70
2023/04/11 05:09:00;;;;;;;7.55;6.00;;;22.50;50.40;;;;;;4875909;29;20041;-71
2023/04/11 05:11:27;;;;;;;7.78;5.85;;;22.50;49.60;;;;;;4875862;29;20034;-70
2023/04/11 05:13:53;;;;;;;7.60;6.00;;;22.50;51.20;;;;;;4859215;29;20045;-68
2023/04/11 05:16:21;;;;;;;7.15;5.63;;;22.40;50.30;;;;;;4875761;29;20057;-69
2023/04/11 05:18:47;;;;;;;8.80;6.50;;;22.50;50.90;;;;;;4861566;29;20034;-69
2023/04/11 05:21:14;;;;;;;10.55;6.78;;;22.50;50.80;;;;;;4875664;29;20500;-70
2023/04/11 05:23:42;;;;;;;8.15;5.80;;;22.60;52.40;;;;;;4875444;29;20351;-69
2023/04/11 05:26:10;;;;;;;8.07;6.00;;;22.60;48.90;;;;;;4875324;29;20196;-70
2023/04/11 05:28:37;;;;;;;6.57;5.60;;;22.40;47.80;;;;;;4860128;29;20711;-70
2023/04/11 05:31:08;;;;;;;8.38;5.82;;;22.50;47.60;;;;;;4860169;29;20459;-69
2023/04/11 05:33:37;;;;;;;9.07;5.43;;;22.50;46.20;;;;;;4892187;29;20059;-73
2023/04/11 05:36:04;;;;;;;2.00;1.00;;;22.30;47.20;;;;;;4894185;29;20056;-73
2023/04/11 05:38:32;;;;;;;2.50;1.48;;;22.70;58.60;;;;;;4880143;29;20117;-73
2023/04/11 05:40:59;;;;;;;4.32;2.03;;;22.70;57.40;;;;;;4879650;29;20036;-69
2023/04/11 05:43:26;;;;;;;5.90;4.57;;;22.80;58.00;;;;;;4879881;29;20116;-70
2023/04/11 05:45:52;;;;;;;8.23;5.57;;;22.80;58.20;;;;;;4879294;29;20033;-70
2023/04/11 05:48:22;;;;;;;9.30;5.68;;;22.80;57.30;;;;;;4879861;29;20197;-71
2023/04/11 05:50:50;;;;;;;5.25;3.47;;;23.00;59.10;;;;;;4879767;29;20115;-73
2023/04/11 05:53:17;;;;;;;6.32;4.70;;;23.00;58.90;;;;;;4878093;29;20033;-71
2023/04/11 05:55:43;;;;;;;8.82;5.40;;;23.00;58.50;;;;;;4879554;29;20065;-72
2023/04/11 05:58:09;;;;;;;8.57;5.28;;;22.90;57.50;;;;;;4879471;29;20489;-72
2023/04/11 06:00:37;;;;;;;6.25;4.75;;;22.90;57.20;;;;;;4879617;29;20131;-72
2023/04/11 06:03:04;;;;;;;7.07;5.07;;;23.00;56.80;;;;;;4893616;29;20063;-72
2023/04/11 06:05:32;;;;;;;10.65;6.40;;;22.90;56.60;;;;;;4879454;29;20041;-73
2023/04/11 06:07:59;;;;;;;11.60;5.35;;;23.10;54.40;;;;;;4878985;29;20465;-73
2023/04/11 06:10:25;;;;;;;7.22;4.15;;;23.10;53.60;;;;;;4879645;29;20088;-72
2023/04/11 06:12:52;;;;;;;7.15;4.50;;;23.00;56.70;;;;;;4877953;29;20040;-71
2023/04/11 06:15:18;;;;;;;5.28;3.58;;;23.10;57.30;;;;;;4879507;29;20037;-72
2023/04/11 06:17:44;;;;;;;9.75;4.70;;;23.10;57.10;;;;;;4879359;29;20498;-75
2023/04/11 06:20:10;;;;;;;7.63;5.43;;;23.10;56.90;;;;;;4879199;29;20065;-73
2023/04/11 06:22:38;;;;;;;7.85;4.95;;;23.10;56.40;;;;;;4879041;29;20072;-72
2023/04/11 06:25:06;;;;;;;7.57;4.95;;;23.10;56.60;;;;;;4879068;29;20059;-71
2023/04/11 06:27:32;;;;;;;6.72;4.30;;;23.20;56.50;;;;;;4893401;29;20045;-74
2023/04/11 06:29:58;;;;;;;5.93;4.50;;;23.20;56.90;;;;;;4877790;29;20180;-74
2023/04/11 06:32:24;;;;;;;11.15;5.90;;;23.10;56.60;;;;;;4878954;29;20123;-74
2023/04/11 06:34:51;;;;;;;5.43;4.40;;;23.20;55.40;;;;;;4888083;29;20470;-74
2023/04/11 06:37:17;;;;;;;6.97;4.70;;;23.20;56.50;;;;;;4863837;29;20064;-75
2023/04/11 06:39:43;;;;;;;7.82;4.75;;;23.20;57.20;;;;;;4878809;29;20054;-76
2023/04/11 06:42:09;;;;;;;9.57;6.07;;;23.30;57.20;;;;;;4862634;29;20088;-75
2023/04/11 06:44:35;;;;;;;6.10;4.55;;;23.20;56.80;;;;;;4878996;29;20035;-75
2023/04/11 06:47:02;;;;;;;7.13;5.15;;;23.40;56.40;;;;;;4878904;29;20043;-78
2023/04/11 06:49:28;;;;;;;7.32;5.30;;;23.30;55.10;;;;;;4878914;29;20490;-78
2023/04/11 06:51:54;;;;;;;10.13;6.05;;;23.20;52.90;;;;;;4878913;29;20430;-74
2023/04/11 06:54:21;;;;;;;8.23;5.57;;;23.10;52.80;;;;;;4878600;29;20056;-74
2023/04/11 06:56:50;;;;;;;10.15;6.70;;;23.00;50.90;;;;;;4878477;29;20061;-73
2023/04/11 06:59:20;;;;;;;5.82;4.45;;;23.00;51.80;;;;;;4878481;29;20033;-75
2023/04/11 07:01:48;;;;;;;7.05;3.88;;;23.00;54.30;;;;;;4878604;29;20167;-74
2023/04/11 07:04:14;;;;;;;6.85;4.72;;;23.10;53.40;;;;;;4847095;29;20046;-75
2023/04/11 07:06:40;;;;;;;10.40;4.38;;;23.10;53.10;;;;;;4860003;29;20453;-73
2023/04/11 07:09:08;;;;;;;7.00;5.20;;;23.10;52.20;;;;;;4860176;29;20061;-74
2023/04/11 07:11:34;;;;;;;11.57;6.03;;;23.00;50.30;;;;;;4859983;29;20034;-73
2023/04/11 07:14:01;;;;;;;5.45;4.18;;;23.00;49.00;;;;;;4859658;29;20029;-74
2023/04/11 07:16:27;;;;;;;10.15;6.15;;;22.90;49.90;;;;;;4860034;29;20113;-77
2023/04/11 07:18:54;;;;;;;7.10;5.15;;;23.00;50.10;;;;;;4843246;29;20037;-76
2023/04/11 07:21:20;;;;;;;7.97;6.05;;;23.00;49.50;;;;;;4821059;29;20042;-76
2023/04/11 07:23:48;;;;;;;7.28;5.82;;;22.90;50.10;;;;;;4820849;29;20063;-74
2023/04/11 07:26:15;;;;;;;8.65;5.65;;;23.10;48.40;;;;;;4820927;29;20038;-72
2023/04/11 07:28:43;;;;;;;10.43;5.95;;;23.10;49.10;;;;;;4820863;29;20100;-73
2023/04/11 07:31:10;;;;;;;7.15;5.25;;;22.90;47.90;;;;;;4820959;29;20050;-74
2023/04/11 07:33:37;;;;;;;7.65;6.18;;;23.00;48.80;;;;;;4805213;29;20038;-73
2023/04/11 07:36:06;;;;;;;6.85;5.32;;;22.80;49.70;;;;;;4814308;29;20052;-74
2023/04/11 07:38:33;;;;;;;9.50;5.85;;;22.70;49.30;;;;;;4838591;29;20049;-74
2023/04/11 07:41:01;;;;;;;8.13;5.50;;;22.80;46.30;;;;;;4838506;29;20416;-74
2023/04/11 07:43:28;;;;;;;9.02;6.68;;;22.60;49.60;;;;;;4838638;29;20050;-75
2023/04/11 07:45:55;;;;;;;8.73;6.70;;;22.60;46.60;;;;;;4805419;29;20065;-74
2023/04/11 07:48:23;;;;;;;10.10;6.78;;;22.50;47.70;;;;;;4802120;29;20054;-74
2023/04/11 07:50:49;;;;;;;10.43;5.85;;;22.50;49.60;;;;;;4802006;29;20031;-73
2023/04/11 07:53:15;;;;;;;10.18;5.68;;;22.60;51.20;;;;;;4835533;29;20049;-75
2023/04/11 07:55:41;;;;;;;8.68;6.63;;;22.60;50.10;;;;;;4824276;29;20097;-73
2023/04/11 07:58:08;;;;;;;10.75;6.07;;;22.60;50.40;;;;;;4840671;29;20049;-72
2023/04/11 08:00:34;;;;;;;9.32;5.97;;;22.60;51.50;;;;;;4853646;29;20486;-73
2023/04/11 08:03:07;;;;;;;14.45;7.82;;;22.40;51.80;;;;;;4858843;29;20136;-73
2023/04/11 08:05:34;;;;;;;9.48;5.82;;;22.50;51.80;;;;;;4859091;29;20036;-73
2023/04/11 08:08:01;;;;;;;9.23;7.10;;;22.50;54.20;;;;;;4858860;29;20486;-74
2023/04/11 08:10:28;;;;;;;8.27;6.53;;;22.50;53.30;;;;;;4859149;29;20046;-73
2023/04/11 08:12:55;;;;;;;11.20;7.15;;;22.60;53.90;;;;;;4858797;29;20546;-74
2023/04/11 08:15:21;;;;;;;16.95;7.63;;;22.50;53.40;;;;;;4857542;29;20085;-73
2023/04/11 08:17:48;;;;;;;9.00;7.30;;;22.60;53.90;;;;;;4858903;29;20049;-74
2023/04/11 08:20:15;;;;;;;17.30;7.40;;;22.60;52.60;;;;;;4859112;29;20060;-75
2023/04/11 08:22:43;;;;;;;7.38;5.78;;;22.60;53.70;;;;;;4859007;29;20379;-75
2023/04/11 08:25:11;;;;;;;12.27;6.47;;;22.70;51.90;;;;;;4859084;29;20033;-74
2023/04/11 08:27:37;;;;;;;9.02;7.13;;;22.80;55.90;;;;;;4858737;29;20375;-74
2023/04/11 08:30:05;;;;;;;9.23;6.22;;;22.90;53.30;;;;;;4858875;29;20034;-73
2023/04/11 08:32:31;;;;;;;7.55;5.35;;;23.00;59.30;;;;;;4859224;29;20033;-74
2023/04/11 08:34:57;;;;;;;10.60;4.57;;;23.10;61.50;;;;;;4859401;29;20036;-72
2023/04/11 08:37:23;;;;;;;12.18;7.10;;;23.10;58.80;;;;;;4844379;29;20052;-73
2023/04/11 08:39:49;;;;;;;4.88;3.92;;;23.30;56.00;;;;;;4877273;29;20036;-73
2023/04/11 08:42:26;;;;;;;3.22;2.92;;;23.20;56.30;;;;;;4877118;29;20561;-72
2023/04/11 08:44:58;;;;;;;5.57;4.60;;;23.20;55.80;;;;;;4877237;29;20033;-74
2023/04/11 08:47:24;;;;;;;9.02;7.53;;;23.20;55.70;;;;;;4877386;29;20041;-72
2023/04/11 08:49:51;;;;;;;9.25;6.85;;;23.20;51.40;;;;;;4877367;29;20036;-74
2023/04/11 08:52:21;;;;;;;12.25;8.00;;;23.10;49.20;;;;;;4876164;29;20057;-75
2023/04/11 08:54:50;;;;;;;10.23;7.18;;;23.20;48.70;;;;;;4877025;29;20041;-72
2023/04/11 08:57:26;;;;;;;11.23;6.90;;;23.20;49.10;;;;;;4877556;29;20460;-73
2023/04/11 08:59:55;;;;;;;14.20;7.97;;;23.30;49.20;;;;;;4878622;29;20044;-72
2023/04/11 09:02:21;;;;;;;13.38;7.68;;;23.50;50.50;;;;;;4880770;29;20041;-70
2023/04/11 09:04:47;;;;;;;8.70;6.88;;;23.50;47.90;;;;;;4880496;29;20041;-72
2023/04/11 09:07:17;;;;;;;10.00;7.90;;;23.50;48.60;;;;;;4880188;29;20052;-71
2023/04/11 09:09:44;;;;;;;10.38;7.35;;;23.60;47.40;;;;;;4880306;29;20520;-72
2023/04/11 09:12:11;;;;;;;11.73;7.85;;;23.60;46.80;;;;;;4880355;29;20041;-72
2023/04/11 09:14:37;;;;;;;13.15;7.40;;;23.60;47.60;;;;;;4880209;29;20029;-73
2023/04/11 09:17:05;;;;;;;9.95;7.40;;;23.70;48.40;;;;;;4880053;29;20044;-70
2023/04/11 09:19:33;;;;;;;7.13;5.65;;;23.60;47.80;;;;;;4880171;29;20041;-69
2023/04/11 09:22:03;;;;;;;11.52;7.43;;;23.60;47.20;;;;;;4880075;29;20143;-70
2023/04/11 09:24:29;;;;;;;10.85;6.28;;;23.70;48.00;;;;;;4880037;29;20047;-70
2023/04/11 09:27:12;;;;;;;5.28;4.47;;;23.70;46.90;;;;;;4880140;29;20033;-73
2023/04/11 09:29:44;;;;;;;5.72;4.70;;;23.70;48.40;;;;;;4880125;29;20041;-71
2023/04/11 09:32:32;;;;;;;6.80;3.67;;;23.90;51.00;;;;;;4878790;29;20033;-71
2023/04/11 09:35:14;;;;;;;6.15;3.90;;;23.70;51.50;;;;;;4879739;29;20037;-71
2023/04/11 09:37:55;;;;;;;6.73;4.23;;;23.80;50.50;;;;;;4879863;29;20149;-72
2023/04/11 09:40:30;;;;;;;5.68;3.58;;;23.90;50.20;;;;;;4879793;29;20037;-71
2023/04/11 09:43:02;;;;;;;6.43;3.97;;;23.90;51.00;;;;;;4879566;29;20041;-74
2023/04/11 09:45:30;;;;;;;4.82;3.83;;;23.80;49.70;;;;;;4879309;29;20053;-73
2023/04/11 09:47:57;;;;;;;14.90;6.10;;;24.00;52.20;;;;;;4863256;29;20128;-73
2023/04/11 09:50:26;;;;;;;10.77;4.82;;;24.30;51.60;;;;;;4879665;29;20036;-72
2023/04/11 09:52:54;;;;;;;6.63;4.75;;;24.40;51.70;;;;;;4878543;29;20048;-74
2023/04/11 09:55:22;;;;;;;5.93;4.25;;;24.40;52.70;;;;;;4862396;29;20477;-74
2023/04/11 09:57:51;;;;;;;9.45;4.20;;;24.40;50.50;;;;;;4879521;29;20033;-74
2023/04/11 10:00:21;;;;;;;8.13;4.78;;;24.40;49.80;;;;;;4879353;29;20509;-71
2023/04/11 10:02:51;;;;;;;5.20;4.35;;;24.20;48.70;;;;;;4879476;29;20045;-70
2023/04/11 10:05:19;;;;;;;5.85;4.07;;;24.40;47.80;;;;;;4862400;29;20036;-72
2023/04/11 10:07:55;;;;;;;7.40;5.20;;;24.30;47.80;;;;;;4879413;29;20044;-73
2023/04/11 10:10:23;;;;;;;8.63;5.32;;;24.40;50.10;;;;;;4862246;29;20045;-73
2023/04/11 10:12:50;;;;;;;7.38;3.72;;;24.50;49.30;;;;;;4877438;29;20405;-73
2023/04/11 10:15:17;;;;;;;5.13;3.53;;;24.50;50.50;;;;;;4862699;29;20045;-74
2023/04/11 10:18:11;;;;;;;5.75;3.35;;;24.60;48.70;;;;;;4879057;29;20112;-74
2023/04/11 10:20:43;;;;;;;8.48;3.55;;;24.30;47.20;;;;;;4862825;29;20442;-73
2023/04/11 10:23:11;;;;;;;2.58;2.05;;;24.30;49.20;;;;;;4879158;29;20052;-74
2023/04/11 10:25:54;;;;;;;3.35;2.53;;;24.20;50.80;;;;;;4861650;29;20076;-73
2023/04/11 10:28:34;;;;;;;2.85;2.10;;;24.20;50.70;;;;;;4879047;29;20100;-74
2023/04/11 10:31:11;;;;;;;3.75;2.65;;;24.00;50.90;;;;;;4878815;29;20094;-74
2023/04/11 10:33:59;;;;;;;4.05;2.90;;;24.20;49.80;;;;;;4878990;29;20029;-74
2023/04/11 10:36:25;;;;;;;3.38;2.40;;;24.10;48.40;;;;;;4871229;29;20061;-75
2023/04/11 10:38:52;;;;;;;3.30;2.80;;;24.10;49.90;;;;;;4878795;29;20112;-74
2023/04/11 10:41:27;;;;;;;5.72;3.38;;;24.00;47.30;;;;;;4878700;29;20541;-74
2023/04/11 10:44:23;;;;;;;5.00;3.47;;;24.00;48.70;;;;;;4878670;29;20096;-73
2023/04/11 10:46:54;;;;;;;4.35;3.10;;;24.00;48.90;;;;;;4878586;29;20450;-73
2023/04/11 10:49:32;;;;;;;4.97;4.18;;;24.00;48.30;;;;;;4878741;29;20033;-73
2023/04/11 10:52:19;;;;;;;4.43;3.53;;;23.80;50.50;;;;;;4879035;29;20041;-75
2023/04/11 10:54:46;;;;;;;6.65;4.55;;;23.80;50.80;;;;;;4878244;29;20080;-73
2023/04/11 10:57:12;;;;;;;7.20;4.18;;;23.90;50.50;;;;;;4878364;29;20041;-76
2023/04/11 10:59:38;;;;;;;5.32;3.75;;;23.80;52.70;;;;;;4878488;29;20484;-72
2023/04/11 11:02:04;;;;;;;6.97;4.57;;;24.10;58.90;;;;;;4878488;29;20165;-74
2023/04/11 11:04:31;;;;;;;5.13;4.10;;;24.00;54.50;;;;;;4878389;29;20033;-74
2023/04/11 11:07:00;;;;;;;5.50;4.15;;;23.90;54.50;;;;;;4861989;29;20629;-73
2023/04/11 11:09:27;;;;;;;6.28;4.68;;;23.90;54.70;;;;;;4878629;29;20033;-73
2023/04/11 11:12:10;;;;;;;7.15;4.65;;;23.90;54.30;;;;;;4885402;29;20098;-74
2023/04/11 11:14:38;;;;;;;7.72;4.40;;;23.90;53.50;;;;;;4880444;29;20497;-75
2023/04/11 11:17:04;;;;;;;5.07;3.88;;;23.80;55.10;;;;;;4897207;29;20115;-74
2023/04/11 11:19:31;;;;;;;6.32;4.93;;;23.90;53.30;;;;;;4891022;29;20037;-74
2023/04/11 11:22:02;;;;;;;7.95;4.68;;;23.80;54.90;;;;;;4877836;29;20036;-74
2023/04/11 11:24:29;;;;;;;8.90;4.90;;;23.70;54.00;;;;;;4878081;29;20061;-75
2023/04/11 11:26:56;;;;;;;6.88;5.13;;;23.70;54.70;;;;;;4878211;29;20093;-73
2023/04/11 11:29:38;;;;;;;7.63;5.00;;;23.70;54.80;;;;;;4908805;29;20111;-74
2023/04/11 11:32:05;;;;;;;5.90;5.30;;;23.70;54.70;;;;;;4911417;29;20068;-74
2023/04/11 11:34:33;;;;;;;7.15;4.63;;;23.70;55.10;;;;;;4896557;29;20280;-75
2023/04/11 11:37:03;;;;;;;5.70;3.75;;;23.60;55.80;;;;;;4896167;29;20048;-75
2023/04/11 11:39:30;;;;;;;10.57;4.30;;;23.60;55.60;;;;;;4841422;29;20045;-74
2023/04/11 11:41:57;;;;;;;7.78;5.22;;;23.60;56.00;;;;;;4838645;29;20073;-76
2023/04/11 11:44:25;;;;;;;8.77;4.88;;;23.80;56.10;;;;;;4838483;29;20068;-75
2023/04/11 11:47:08;;;;;;;7.18;5.20;;;23.70;56.20;;;;;;4838458;29;20034;-74
2023/04/11 11:49:48;;;;;;;6.93;4.88;;;23.70;56.20;;;;;;4820237;29;20050;-73
2023/04/11 11:52:33;;;;;;;6.43;4.90;;;23.60;56.30;;;;;;4820343;29;20069;-72
2023/04/11 11:55:00;;;;;;;7.05;4.75;;;23.70;58.30;;;;;;4819695;29;20069;-73
2023/04/11 11:57:26;;;;;;;8.60;5.65;;;23.70;59.50;;;;;;4820371;29;20057;-72
2023/04/11 11:59:56;;;;;;;11.60;4.45;;;23.70;58.60;;;;;;4820207;29;20054;-73
2023/04/11 12:02:24;;;;;;;11.60;4.40;;;23.60;57.80;;;;;;4820004;29;20179;-72
2023/04/11 12:04:56;;;;;;;10.60;5.07;;;23.60;57.40;;;;;;4820086;29;20054;-74
2023/04/11 12:07:22;;;;;;;9.20;4.80;;;23.70;58.20;;;;;;4806115;29;20522;-75
2023/04/11 12:09:49;;;;;;;13.52;5.95;;;23.60;57.60;;;;;;4813006;29;20053;-75
2023/04/11 12:12:16;;;;;;;6.10;4.53;;;23.60;57.70;;;;;;4841717;29;20064;-73
2023/04/11 12:14:52;;;;;;;9.10;5.30;;;23.70;58.10;;;;;;4856907;29;20064;-74
2023/04/11 12:17:18;;;;;;;4.75;3.65;;;23.70;57.20;;;;;;4857012;29;20182;-75
2023/04/11 12:19:44;;;;;;;9.80;4.97;;;23.70;57.90;;;;;;4860338;29;20049;-74
2023/04/11 12:22:10;;;;;;;11.20;4.72;;;23.70;57.80;;;;;;4877672;29;20045;-73
2023/04/11 12:24:36;;;;;;;7.20;4.82;;;23.70;57.70;;;;;;4877695;29;20709;-73
2023/04/11 12:27:03;;;;;;;4.43;3.97;;;23.60;57.50;;;;;;4876382;29;20506;-74
2023/04/11 12:29:29;;;;;;;5.88;4.22;;;23.50;56.50;;;;;;4876687;29;20140;-72
2023/04/11 12:31:55;;;;;;;8.00;3.92;;;23.60;57.70;;;;;;4877898;29;20177;-72
2023/04/11 12:34:21;;;;;;;9.25;4.72;;;23.60;57.70;;;;;;4878505;29;20048;-72
2023/04/11 12:36:47;;;;;;;9.25;4.53;;;23.40;55.80;;;;;;4881244;29;20507;-73
2023/04/11 12:39:13;;;;;;;7.60;4.90;;;23.50;55.00;;;;;;4882597;29;20154;-73
2023/04/11 12:41:39;;;;;;;5.80;4.18;;;23.40;54.80;;;;;;4882562;29;20116;-73
2023/04/11 12:44:05;;;;;;;12.43;5.05;;;23.40;55.00;;;;;;4884203;29;20052;-73
2023/04/11 12:46:32;;;;;;;6.97;4.78;;;23.40;56.10;;;;;;4884269;29;20037;-72
2023/04/11 12:48:58;;;;;;;4.32;3.22;;;23.40;55.90;;;;;;4884212;29;20127;-73
2023/04/11 12:51:24;;;;;;;7.15;4.53;;;23.40;57.30;;;;;;4884214;29;20072;-73
2023/04/11 12:53:51;;;;;;;4.93;4.28;;;23.40;56.50;;;;;;4883811;29;20081;-73